createdAt,value
2018-04-22T00:00:43.688Z,1008.49
2018-04-22T00:01:43.747Z,1008.49
2018-04-22T00:02:43.722Z,1008.44
2018-04-22T00:03:43.636Z,1008.47
2018-04-22T00:04:43.688Z,1008.42
2018-04-22T00:05:43.690Z,1008.38
2018-04-22T00:06:43.691Z,1008.36
2018-04-22T00:07:43.751Z,1008.37
2018-04-22T00:08:43.734Z,1008.32
2018-04-22T00:09:43.662Z,1008.37
2018-04-22T00:10:43.758Z,1008.34
2018-04-22T00:11:43.764Z,1008.32
2018-04-22T00:12:43.723Z,1008.30
2018-04-22T00:13:43.768Z,1008.26
2018-04-22T00:14:43.755Z,1008.22
2018-04-22T00:15:43.727Z,1008.24
2018-04-22T00:16:43.765Z,1008.19
2018-04-22T00:17:43.761Z,1008.22
2018-04-22T00:18:43.675Z,1008.18
2018-04-22T00:19:43.680Z,1008.16
2018-04-22T00:20:43.713Z,1008.12
2018-04-22T00:21:43.711Z,1008.10
2018-04-22T00:22:43.718Z,1008.09
2018-04-22T00:23:43.713Z,1008.08
2018-04-22T00:24:43.784Z,1008.09
2018-04-22T00:25:43.708Z,1008.09
2018-04-22T00:26:43.712Z,1008.10
2018-04-22T00:27:43.710Z,1008.11
2018-04-22T00:28:43.717Z,1008.10
2018-04-22T00:29:43.784Z,1008.11
2018-04-22T00:30:43.748Z,1008.10
2018-04-22T00:31:43.802Z,1008.12
2018-04-22T00:32:43.804Z,1008.09
2018-04-22T00:33:43.804Z,1008.10
2018-04-22T00:34:43.756Z,1008.05
2018-04-22T00:35:43.783Z,1008.06
2018-04-22T00:36:43.702Z,1008.08
2018-04-22T00:37:43.819Z,1008.02
2018-04-22T00:38:43.823Z,1008.05
2018-04-22T00:39:43.818Z,1008.01
2018-04-22T00:40:43.844Z,1007.99
2018-04-22T00:41:43.705Z,1007.97
2018-04-22T00:42:43.824Z,1007.95
2018-04-22T00:43:43.694Z,1007.95
2018-04-22T00:44:43.788Z,1007.91
2018-04-22T00:45:43.793Z,1007.90
2018-04-22T00:46:43.752Z,1007.88
2018-04-22T00:47:43.689Z,1007.92
2018-04-22T00:48:43.757Z,1007.89
2018-04-22T00:49:43.830Z,1007.89
2018-04-22T00:50:43.756Z,1007.90
2018-04-22T00:51:43.713Z,1007.89
2018-04-22T00:52:43.770Z,1007.91
2018-04-22T00:53:43.770Z,1007.89
2018-04-22T00:54:43.761Z,1007.90
2018-04-22T00:55:43.755Z,1007.93
2018-04-22T00:56:43.741Z,1007.89
2018-04-22T00:57:43.817Z,1007.88
2018-04-22T00:58:43.831Z,1007.85
2018-04-22T00:59:43.765Z,1007.81
2018-04-22T01:00:43.761Z,1007.83
2018-04-22T01:01:43.803Z,1007.81
2018-04-22T01:02:43.733Z,1007.79
2018-04-22T01:03:43.805Z,1007.81
2018-04-22T01:04:43.803Z,1007.82
2018-04-22T01:05:43.742Z,1007.80
2018-04-22T01:06:43.734Z,1007.76
2018-04-22T01:07:43.812Z,1007.74
2018-04-22T01:08:43.690Z,1007.78
2018-04-22T01:09:43.741Z,1007.79
2018-04-22T01:10:43.859Z,1007.81
2018-04-22T01:11:43.711Z,1007.77
2018-04-22T01:12:43.865Z,1007.79
2018-04-22T01:13:43.714Z,1007.78
2018-04-22T01:14:43.856Z,1007.80
2018-04-22T01:15:43.866Z,1007.81
2018-04-22T01:16:43.848Z,1007.81
2018-04-22T01:17:43.846Z,1007.80
2018-04-22T01:18:43.835Z,1007.80
2018-04-22T01:19:43.731Z,1007.79
2018-04-22T01:20:43.820Z,1007.78
2018-04-22T01:21:43.709Z,1007.76
2018-04-22T01:22:43.747Z,1007.76
2018-04-22T01:23:43.840Z,1007.76
2018-04-22T01:24:43.751Z,1007.73
2018-04-22T01:25:43.818Z,1007.72
2018-04-22T01:26:43.920Z,1007.71
2018-04-22T01:27:43.754Z,1007.67
2018-04-22T01:28:43.825Z,1007.69
2018-04-22T01:29:43.757Z,1007.68
2018-04-22T01:30:43.733Z,1007.68
2018-04-22T01:31:43.819Z,1007.69
2018-04-22T01:32:43.782Z,1007.75
2018-04-22T01:33:43.737Z,1007.71
2018-04-22T01:34:43.819Z,1007.71
2018-04-22T01:35:43.734Z,1007.71
2018-04-22T01:36:43.717Z,1007.65
2018-04-22T01:37:43.700Z,1007.63
2018-04-22T01:38:43.823Z,1007.60
2018-04-22T01:39:43.735Z,1007.59
2018-04-22T01:40:43.796Z,1007.59
2018-04-22T01:41:43.869Z,1007.62
2018-04-22T01:42:43.851Z,1007.58
2018-04-22T01:43:43.831Z,1007.55
2018-04-22T01:44:43.810Z,1007.55
2018-04-22T01:45:43.876Z,1007.55
2018-04-22T01:46:43.848Z,1007.50
2018-04-22T01:47:43.758Z,1007.52
2018-04-22T01:48:43.872Z,1007.48
2018-04-22T01:49:43.834Z,1007.50
2018-04-22T01:50:43.807Z,1007.48
2018-04-22T01:51:43.762Z,1007.43
2018-04-22T01:52:43.804Z,1007.41
2018-04-22T01:53:43.895Z,1007.41
2018-04-22T01:54:43.860Z,1007.44
2018-04-22T01:55:43.839Z,1007.47
2018-04-22T01:56:43.766Z,1007.45
2018-04-22T01:57:43.913Z,1007.41
2018-04-22T01:58:43.810Z,1007.41
2018-04-22T01:59:43.809Z,1007.44
2018-04-22T02:00:43.820Z,1007.35
2018-04-22T02:01:43.869Z,1007.40
2018-04-22T02:02:43.870Z,1007.35
2018-04-22T02:03:43.787Z,1007.33
2018-04-22T02:04:43.842Z,1007.34
2018-04-22T02:05:43.807Z,1007.35
2018-04-22T02:06:43.749Z,1007.33
2018-04-22T02:07:43.808Z,1007.34
2018-04-22T02:08:43.819Z,1007.33
2018-04-22T02:09:43.848Z,1007.30
2018-04-22T02:10:43.704Z,1007.31
2018-04-22T02:11:43.867Z,1007.30
2018-04-22T02:12:43.757Z,1007.28
2018-04-22T02:13:43.799Z,1007.32
2018-04-22T02:14:43.798Z,1007.26
2018-04-22T02:15:43.708Z,1007.27
2018-04-22T02:16:43.713Z,1007.27
2018-04-22T02:17:43.704Z,1007.28
2018-04-22T02:18:43.805Z,1007.24
2018-04-22T02:19:43.802Z,1007.29
2018-04-22T02:20:43.856Z,1007.29
2018-04-22T02:21:43.783Z,1007.25
2018-04-22T02:22:43.859Z,1007.27
2018-04-22T02:23:43.787Z,1007.30
2018-04-22T02:24:43.795Z,1007.26
2018-04-22T02:25:43.793Z,1007.25
2018-04-22T02:26:43.859Z,1007.24
2018-04-22T02:27:43.803Z,1007.25
2018-04-22T02:28:43.789Z,1007.22
2018-04-22T02:29:43.823Z,1007.19
2018-04-22T02:30:43.820Z,1007.21
2018-04-22T02:31:43.766Z,1007.16
2018-04-22T02:32:43.767Z,1007.18
2018-04-22T02:33:43.850Z,1007.15
2018-04-22T02:34:43.772Z,1007.11
2018-04-22T02:35:43.773Z,1007.06
2018-04-22T02:36:43.892Z,1007.03
2018-04-22T02:37:43.901Z,1007.00
2018-04-22T02:38:43.830Z,1007.01
2018-04-22T02:39:43.866Z,1006.98
2018-04-22T02:40:43.797Z,1006.99
2018-04-22T02:41:43.801Z,1006.93
2018-04-22T02:42:43.866Z,1006.93
2018-04-22T02:43:43.829Z,1006.95
2018-04-22T02:44:43.860Z,1006.94
2018-04-22T02:45:43.872Z,1006.91
2018-04-22T02:46:43.870Z,1006.92
2018-04-22T02:47:43.806Z,1006.91
2018-04-22T02:48:43.874Z,1006.91
2018-04-22T02:49:43.808Z,1006.93
2018-04-22T02:50:43.873Z,1006.86
2018-04-22T02:51:43.911Z,1006.89
2018-04-22T02:52:43.778Z,1006.90
2018-04-22T02:53:43.871Z,1006.89
2018-04-22T02:54:43.871Z,1006.85
2018-04-22T02:55:43.891Z,1006.85
2018-04-22T02:56:43.836Z,1006.84
2018-04-22T02:57:43.843Z,1006.82
2018-04-22T02:58:43.882Z,1006.83
2018-04-22T02:59:43.879Z,1006.85
2018-04-22T03:00:43.897Z,1006.83
2018-04-22T03:01:43.853Z,1006.85
2018-04-22T03:02:43.838Z,1006.85
2018-04-22T03:03:43.805Z,1006.84
2018-04-22T03:04:43.884Z,1006.82
2018-04-22T03:05:43.911Z,1006.83
2018-04-22T03:06:43.851Z,1006.81
2018-04-22T03:07:43.779Z,1006.84
2018-04-22T03:08:43.785Z,1006.83
2018-04-22T03:09:43.845Z,1006.88
2018-04-22T03:10:43.819Z,1006.82
2018-04-22T03:11:43.821Z,1006.81
2018-04-22T03:12:43.883Z,1006.83
2018-04-22T03:13:43.822Z,1006.81
2018-04-22T03:14:43.817Z,1006.77
2018-04-22T03:15:43.815Z,1006.78
2018-04-22T03:16:43.889Z,1006.78
2018-04-22T03:17:43.819Z,1006.73
2018-04-22T03:18:43.818Z,1006.71
2018-04-22T03:19:43.892Z,1006.74
2018-04-22T03:20:43.883Z,1006.71
2018-04-22T03:21:43.841Z,1006.74
2018-04-22T03:22:43.883Z,1006.72
2018-04-22T03:23:43.850Z,1006.69
2018-04-22T03:24:43.885Z,1006.68
2018-04-22T03:25:43.776Z,1006.72
2018-04-22T03:26:43.885Z,1006.67
2018-04-22T03:27:43.886Z,1006.68
2018-04-22T03:28:43.836Z,1006.66
2018-04-22T03:29:43.778Z,1006.70
2018-04-22T03:30:43.915Z,1006.69
2018-04-22T03:31:43.894Z,1006.69
2018-04-22T03:32:43.862Z,1006.71
2018-04-22T03:33:43.857Z,1006.70
2018-04-22T03:34:43.895Z,1006.62
2018-04-22T03:35:43.870Z,1006.58
2018-04-22T03:36:43.893Z,1006.58
2018-04-22T03:37:43.916Z,1006.55
2018-04-22T03:38:43.899Z,1006.55
2018-04-22T03:39:43.896Z,1006.56
2018-04-22T03:40:43.809Z,1006.56
2018-04-22T03:41:43.899Z,1006.56
2018-04-22T03:42:43.938Z,1006.53
2018-04-22T03:43:43.868Z,1006.52
2018-04-22T03:44:43.991Z,1006.50
2018-04-22T03:45:43.866Z,1006.48
2018-04-22T03:46:43.934Z,1006.45
2018-04-22T03:47:43.937Z,1006.43
2018-04-22T03:48:43.979Z,1006.42
2018-04-22T03:49:43.835Z,1006.39
2018-04-22T03:50:43.827Z,1006.42
2018-04-22T03:51:43.931Z,1006.44
2018-04-22T03:52:43.874Z,1006.46
2018-04-22T03:53:43.830Z,1006.45
2018-04-22T03:54:43.948Z,1006.43
2018-04-22T03:55:43.950Z,1006.39
2018-04-22T03:56:43.879Z,1006.44
2018-04-22T03:57:43.836Z,1006.37
2018-04-22T03:58:43.911Z,1006.41
2018-04-22T03:59:43.820Z,1006.42
2018-04-22T04:00:43.883Z,1006.42
2018-04-22T04:01:43.942Z,1006.40
2018-04-22T04:02:43.890Z,1006.40
2018-04-22T04:03:43.859Z,1006.40
2018-04-22T04:04:43.857Z,1006.37
2018-04-22T04:05:43.889Z,1006.34
2018-04-22T04:06:43.838Z,1006.35
2018-04-22T04:07:43.922Z,1006.33
2018-04-22T04:08:43.920Z,1006.36
2018-04-22T04:09:43.879Z,1006.33
2018-04-22T04:10:43.951Z,1006.32
2018-04-22T04:11:43.922Z,1006.33
2018-04-22T04:12:43.851Z,1006.34
2018-04-22T04:13:43.927Z,1006.35
2018-04-22T04:14:43.926Z,1006.34
2018-04-22T04:15:43.926Z,1006.34
2018-04-22T04:16:43.863Z,1006.32
2018-04-22T04:17:43.860Z,1006.30
2018-04-22T04:18:43.922Z,1006.26
2018-04-22T04:19:43.859Z,1006.24
2018-04-22T04:20:43.932Z,1006.19
2018-04-22T04:21:43.819Z,1006.22
2018-04-22T04:22:43.832Z,1006.23
2018-04-22T04:23:43.890Z,1006.20
2018-04-22T04:24:43.826Z,1006.21
2018-04-22T04:25:43.882Z,1006.18
2018-04-22T04:26:43.918Z,1006.19
2018-04-22T04:27:43.808Z,1006.15
2018-04-22T04:28:43.913Z,1006.15
2018-04-22T04:29:43.919Z,1006.15
2018-04-22T04:30:43.925Z,1006.21
2018-04-22T04:31:43.905Z,1006.24
2018-04-22T04:32:43.931Z,1006.23
2018-04-22T04:33:43.959Z,1006.25
2018-04-22T04:34:43.935Z,1006.21
2018-04-22T04:35:43.935Z,1006.22
2018-04-22T04:36:43.900Z,1006.21
2018-04-22T04:37:43.962Z,1006.19
2018-04-22T04:38:43.967Z,1006.23
2018-04-22T04:39:43.903Z,1006.20
2018-04-22T04:40:43.969Z,1006.22
2018-04-22T04:41:43.960Z,1006.19
2018-04-22T04:42:43.909Z,1006.25
2018-04-22T04:43:43.962Z,1006.23
2018-04-22T04:44:43.879Z,1006.22
2018-04-22T04:45:43.909Z,1006.21
2018-04-22T04:46:43.980Z,1006.19
2018-04-22T04:47:43.942Z,1006.16
2018-04-22T04:48:43.942Z,1006.12
2018-04-22T04:49:43.978Z,1006.11
2018-04-22T04:50:43.851Z,1006.05
2018-04-22T04:51:43.946Z,1006.09
2018-04-22T04:52:43.917Z,1006.12
2018-04-22T04:53:43.979Z,1006.14
2018-04-22T04:54:43.899Z,1006.10
2018-04-22T04:55:43.904Z,1006.19
2018-04-22T04:56:43.978Z,1006.17
2018-04-22T04:57:43.928Z,1006.17
2018-04-22T04:58:43.947Z,1006.18
2018-04-22T04:59:43.949Z,1006.17
2018-04-22T05:00:43.971Z,1006.17
2018-04-22T05:01:43.970Z,1006.18
2018-04-22T05:02:43.887Z,1006.16
2018-04-22T05:03:43.954Z,1006.18
2018-04-22T05:04:43.888Z,1006.17
2018-04-22T05:05:43.955Z,1006.15
2018-04-22T05:06:43.882Z,1006.17
2018-04-22T05:07:43.885Z,1006.11
2018-04-22T05:08:43.957Z,1006.16
2018-04-22T05:09:43.957Z,1006.16
2018-04-22T05:10:43.891Z,1006.14
2018-04-22T05:11:43.862Z,1006.14
2018-04-22T05:12:43.913Z,1006.16
2018-04-22T05:13:43.980Z,1006.16
2018-04-22T05:14:43.979Z,1006.17
2018-04-22T05:15:43.859Z,1006.16
2018-04-22T05:16:43.960Z,1006.13
2018-04-22T05:17:43.959Z,1006.16
2018-04-22T05:18:44.002Z,1006.13
2018-04-22T05:19:43.979Z,1006.10
2018-04-22T05:20:43.985Z,1006.13
2018-04-22T05:21:43.967Z,1006.11
2018-04-22T05:22:43.936Z,1006.05
2018-04-22T05:23:43.869Z,1006.05
2018-04-22T05:24:43.993Z,1006.06
2018-04-22T05:25:43.934Z,1006.01
2018-04-22T05:26:43.914Z,1006.00
2018-04-22T05:27:43.986Z,1005.98
2018-04-22T05:28:43.867Z,1006.01
2018-04-22T05:29:43.927Z,1006.01
2018-04-22T05:30:43.904Z,1005.99
2018-04-22T05:31:43.972Z,1006.01
2018-04-22T05:32:43.905Z,1006.01
2018-04-22T05:33:43.903Z,1006.02
2018-04-22T05:34:43.909Z,1006.04
2018-04-22T05:35:43.975Z,1006.03
2018-04-22T05:36:43.977Z,1006.02
2018-04-22T05:37:43.976Z,1006.00
2018-04-22T05:38:43.935Z,1005.98
2018-04-22T05:39:43.992Z,1005.96
2018-04-22T05:40:43.972Z,1005.96
2018-04-22T05:41:43.866Z,1005.97
2018-04-22T05:42:43.929Z,1006.00
2018-04-22T05:43:43.845Z,1005.99
2018-04-22T05:44:43.856Z,1006.02
2018-04-22T05:45:43.844Z,1006.01
2018-04-22T05:46:43.885Z,1006.03
2018-04-22T05:47:43.864Z,1006.02
2018-04-22T05:48:43.956Z,1005.96
2018-04-22T05:49:43.847Z,1005.96
2018-04-22T05:50:43.966Z,1005.95
2018-04-22T05:51:43.997Z,1005.92
2018-04-22T05:52:43.868Z,1005.89
2018-04-22T05:53:43.940Z,1005.91
2018-04-22T05:54:43.851Z,1005.88
2018-04-22T05:55:43.988Z,1005.83
2018-04-22T05:56:43.984Z,1005.86
2018-04-22T05:57:43.981Z,1005.86
2018-04-22T05:58:43.927Z,1005.90
2018-04-22T05:59:43.895Z,1005.94
2018-04-22T06:00:43.859Z,1005.96
2018-04-22T06:01:43.984Z,1005.94
2018-04-22T06:02:43.967Z,1005.93
2018-04-22T06:03:43.984Z,1005.95
2018-04-22T06:04:44.025Z,1005.89
2018-04-22T06:05:43.948Z,1005.87
2018-04-22T06:06:43.970Z,1005.89
2018-04-22T06:07:43.957Z,1005.84
2018-04-22T06:08:44.019Z,1005.83
2018-04-22T06:09:43.994Z,1005.83
2018-04-22T06:10:44.019Z,1005.81
2018-04-22T06:11:43.965Z,1005.76
2018-04-22T06:12:44.022Z,1005.74
2018-04-22T06:13:44.017Z,1005.74
2018-04-22T06:14:43.960Z,1005.71
2018-04-22T06:15:44.028Z,1005.70
2018-04-22T06:16:44.032Z,1005.70
2018-04-22T06:17:44.034Z,1005.65
2018-04-22T06:18:43.969Z,1005.65
2018-04-22T06:19:43.996Z,1005.65
2018-04-22T06:20:43.907Z,1005.62
2018-04-22T06:21:44.042Z,1005.64
2018-04-22T06:22:44.005Z,1005.60
2018-04-22T06:23:44.036Z,1005.58
2018-04-22T06:24:43.939Z,1005.54
2018-04-22T06:25:44.030Z,1005.59
2018-04-22T06:26:43.936Z,1005.52
2018-04-22T06:27:44.003Z,1005.53
2018-04-22T06:28:44.003Z,1005.52
2018-04-22T06:29:44.006Z,1005.56
2018-04-22T06:30:44.012Z,1005.54
2018-04-22T06:31:44.013Z,1005.57
2018-04-22T06:32:44.007Z,1005.54
2018-04-22T06:33:44.017Z,1005.51
2018-04-22T06:34:43.914Z,1005.47
2018-04-22T06:35:43.978Z,1005.44
2018-04-22T06:36:43.990Z,1005.45
2018-04-22T06:37:43.993Z,1005.44
2018-04-22T06:38:44.031Z,1005.44
2018-04-22T06:39:44.022Z,1005.42
2018-04-22T06:40:43.979Z,1005.44
2018-04-22T06:41:44.020Z,1005.34
2018-04-22T06:42:44.054Z,1005.39
2018-04-22T06:43:44.038Z,1005.40
2018-04-22T06:44:44.017Z,1005.41
2018-04-22T06:45:43.974Z,1005.38
2018-04-22T06:46:44.000Z,1005.36
2018-04-22T06:47:44.036Z,1005.37
2018-04-22T06:48:44.050Z,1005.40
2018-04-22T06:49:44.062Z,1005.39
2018-04-22T06:50:43.955Z,1005.38
2018-04-22T06:51:43.991Z,1005.37
2018-04-22T06:52:43.989Z,1005.38
2018-04-22T06:53:44.003Z,1005.43
2018-04-22T06:54:43.981Z,1005.42
2018-04-22T06:55:44.041Z,1005.43
2018-04-22T06:56:43.999Z,1005.40
2018-04-22T06:57:43.987Z,1005.40
2018-04-22T06:58:43.938Z,1005.39
2018-04-22T06:59:44.051Z,1005.40
2018-04-22T07:00:43.983Z,1005.45
2018-04-22T07:01:44.056Z,1005.41
2018-04-22T07:02:43.994Z,1005.42
2018-04-22T07:03:43.999Z,1005.44
2018-04-22T07:04:43.992Z,1005.38
2018-04-22T07:05:43.935Z,1005.39
2018-04-22T07:06:43.950Z,1005.39
2018-04-22T07:07:43.998Z,1005.35
2018-04-22T07:08:43.934Z,1005.33
2018-04-22T07:09:43.991Z,1005.35
2018-04-22T07:10:44.059Z,1005.34
2018-04-22T07:11:44.035Z,1005.36
2018-04-22T07:12:44.048Z,1005.35
2018-04-22T07:13:44.040Z,1005.33
2018-04-22T07:14:43.995Z,1005.34
2018-04-22T07:15:44.055Z,1005.28
2018-04-22T07:16:44.028Z,1005.32
2018-04-22T07:17:43.975Z,1005.25
2018-04-22T07:18:43.991Z,1005.29
2018-04-22T07:19:43.974Z,1005.26
2018-04-22T07:20:44.041Z,1005.28
2018-04-22T07:21:44.117Z,1005.31
2018-04-22T07:22:44.067Z,1005.28
2018-04-22T07:23:44.074Z,1005.29
2018-04-22T07:24:43.998Z,1005.29
2018-04-22T07:25:43.960Z,1005.32
2018-04-22T07:26:44.027Z,1005.29
2018-04-22T07:27:44.012Z,1005.25
2018-04-22T07:28:43.952Z,1005.29
2018-04-22T07:29:44.080Z,1005.27
2018-04-22T07:30:44.075Z,1005.28
2018-04-22T07:31:43.961Z,1005.27
2018-04-22T07:32:44.050Z,1005.27
2018-04-22T07:33:44.042Z,1005.30
2018-04-22T07:34:43.951Z,1005.27
2018-04-22T07:35:44.003Z,1005.26
2018-04-22T07:36:43.968Z,1005.21
2018-04-22T07:37:44.037Z,1005.15
2018-04-22T07:38:44.009Z,1005.16
2018-04-22T07:39:44.002Z,1005.16
2018-04-22T07:40:44.041Z,1005.14
2018-04-22T07:41:44.053Z,1005.21
2018-04-22T07:42:43.984Z,1005.19
2018-04-22T07:43:44.093Z,1005.14
2018-04-22T07:44:44.056Z,1005.16
2018-04-22T07:45:44.056Z,1005.11
2018-04-22T07:46:44.060Z,1005.07
2018-04-22T07:47:44.013Z,1005.08
2018-04-22T07:48:44.062Z,1005.03
2018-04-22T07:49:43.993Z,1005.02
2018-04-22T07:50:44.058Z,1005.02
2018-04-22T07:51:44.004Z,1005.01
2018-04-22T07:52:44.060Z,1004.99
2018-04-22T07:53:44.013Z,1004.96
2018-04-22T07:54:44.014Z,1004.91
2018-04-22T07:55:44.047Z,1004.87
2018-04-22T07:56:43.990Z,1004.86
2018-04-22T07:57:43.965Z,1004.83
2018-04-22T07:58:43.970Z,1004.85
2018-04-22T07:59:44.057Z,1004.80
2018-04-22T08:00:43.948Z,1004.76
2018-04-22T08:01:44.061Z,1004.73
2018-04-22T08:02:44.101Z,1004.70
2018-04-22T08:03:44.038Z,1004.66
2018-04-22T08:04:44.059Z,1004.63
2018-04-22T08:05:44.023Z,1004.61
2018-04-22T08:06:44.110Z,1004.59
2018-04-22T08:07:44.037Z,1004.60
2018-04-22T08:08:44.101Z,1004.62
2018-04-22T08:09:44.037Z,1004.61
2018-04-22T08:10:44.071Z,1004.61
2018-04-22T08:11:44.099Z,1004.59
2018-04-22T08:12:44.107Z,1004.57
2018-04-22T08:13:44.012Z,1004.59
2018-04-22T08:14:44.036Z,1004.51
2018-04-22T08:15:44.074Z,1004.51
2018-04-22T08:16:44.051Z,1004.51
2018-04-22T08:17:44.037Z,1004.51
2018-04-22T08:18:44.078Z,1004.52
2018-04-22T08:19:43.978Z,1004.56
2018-04-22T08:20:44.047Z,1004.58
2018-04-22T08:21:44.035Z,1004.56
2018-04-22T08:22:44.005Z,1004.59
2018-04-22T08:23:43.980Z,1004.59
2018-04-22T08:24:44.111Z,1004.57
2018-04-22T08:25:44.078Z,1004.55
2018-04-22T08:26:44.085Z,1004.55
2018-04-22T08:27:44.056Z,1004.52
2018-04-22T08:28:44.056Z,1004.54
2018-04-22T08:29:44.044Z,1004.54
2018-04-22T08:30:44.084Z,1004.52
2018-04-22T08:31:44.083Z,1004.49
2018-04-22T08:32:44.020Z,1004.47
2018-04-22T08:33:44.025Z,1004.46
2018-04-22T08:34:44.087Z,1004.43
2018-04-22T08:35:44.030Z,1004.41
2018-04-22T08:36:44.088Z,1004.42
2018-04-22T08:37:44.027Z,1004.42
2018-04-22T08:38:44.093Z,1004.37
2018-04-22T08:39:44.020Z,1004.40
2018-04-22T08:40:44.095Z,1004.40
2018-04-22T08:41:44.050Z,1004.39
2018-04-22T08:42:44.035Z,1004.39
2018-04-22T08:43:44.073Z,1004.37
2018-04-22T08:44:43.974Z,1004.39
2018-04-22T08:45:44.085Z,1004.40
2018-04-22T08:46:43.961Z,1004.34
2018-04-22T08:47:44.074Z,1004.34
2018-04-22T08:48:44.050Z,1004.33
2018-04-22T08:49:44.077Z,1004.33
2018-04-22T08:50:44.087Z,1004.31
2018-04-22T08:51:44.118Z,1004.30
2018-04-22T08:52:44.122Z,1004.34
2018-04-22T08:53:44.098Z,1004.28
2018-04-22T08:54:44.074Z,1004.24
2018-04-22T08:55:44.041Z,1004.23
2018-04-22T08:56:44.175Z,1004.20
2018-04-22T08:57:44.135Z,1004.17
2018-04-22T08:58:44.072Z,1004.19
2018-04-22T08:59:44.082Z,1004.15
2018-04-22T09:00:44.100Z,1004.15
2018-04-22T09:01:44.106Z,1004.14
2018-04-22T09:02:44.163Z,1004.16
2018-04-22T09:03:44.104Z,1004.09
2018-04-22T09:04:44.024Z,1004.08
2018-04-22T09:05:44.106Z,1004.05
2018-04-22T09:06:44.108Z,1004.04
2018-04-22T09:07:44.105Z,1004.00
2018-04-22T09:08:44.086Z,1004.02
2018-04-22T09:09:44.082Z,1003.97
2018-04-22T09:10:44.066Z,1003.97
2018-04-22T09:11:44.013Z,1003.96
2018-04-22T09:12:44.068Z,1003.89
2018-04-22T09:13:44.113Z,1003.88
2018-04-22T09:14:44.103Z,1003.89
2018-04-22T09:15:44.105Z,1003.85
2018-04-22T09:16:43.981Z,1003.84
2018-04-22T09:17:44.103Z,1003.81
2018-04-22T09:18:44.043Z,1003.79
2018-04-22T09:19:44.103Z,1003.82
2018-04-22T09:20:44.042Z,1003.82
2018-04-22T09:21:44.140Z,1003.77
2018-04-22T09:22:44.139Z,1003.75
2018-04-22T09:23:44.143Z,1003.75
2018-04-22T09:24:44.023Z,1003.71
2018-04-22T09:25:44.146Z,1003.71
2018-04-22T09:26:44.161Z,1003.69
2018-04-22T09:27:44.097Z,1003.70
2018-04-22T09:28:44.120Z,1003.66
2018-04-22T09:29:44.122Z,1003.66
2018-04-22T09:30:44.062Z,1003.65
2018-04-22T09:31:44.097Z,1003.66
2018-04-22T09:32:44.101Z,1003.68
2018-04-22T09:33:44.169Z,1003.65
2018-04-22T09:34:44.098Z,1003.65
2018-04-22T09:35:44.097Z,1003.59
2018-04-22T09:36:44.160Z,1003.58
2018-04-22T09:37:44.097Z,1003.58
2018-04-22T09:38:44.162Z,1003.57
2018-04-22T09:39:44.097Z,1003.55
2018-04-22T09:40:44.168Z,1003.58
2018-04-22T09:41:44.153Z,1003.54
2018-04-22T09:42:44.106Z,1003.54
2018-04-22T09:43:44.163Z,1003.58
2018-04-22T09:44:44.169Z,1003.56
2018-04-22T09:45:44.033Z,1003.60
2018-04-22T09:46:44.102Z,1003.57
2018-04-22T09:47:44.203Z,1003.60
2018-04-22T09:48:44.089Z,1003.57
2018-04-22T09:49:44.142Z,1003.59
2018-04-22T09:50:44.131Z,1003.60
2018-04-22T09:51:44.172Z,1003.56
2018-04-22T09:52:44.130Z,1003.59
2018-04-22T09:53:44.065Z,1003.55
2018-04-22T09:54:44.137Z,1003.59
2018-04-22T09:55:44.204Z,1003.52
2018-04-22T09:56:44.070Z,1003.55
2018-04-22T09:57:44.141Z,1003.55
2018-04-22T09:58:44.145Z,1003.50
2018-04-22T09:59:44.139Z,1003.53
2018-04-22T10:00:44.075Z,1003.50
2018-04-22T10:01:44.072Z,1003.53
2018-04-22T10:02:44.173Z,1003.50
2018-04-22T10:03:44.144Z,1003.45
2018-04-22T10:04:44.125Z,1003.42
2018-04-22T10:05:44.140Z,1003.40
2018-04-22T10:06:44.105Z,1003.42
2018-04-22T10:07:44.048Z,1003.37
2018-04-22T10:08:44.129Z,1003.38
2018-04-22T10:09:44.098Z,1003.38
2018-04-22T10:10:44.064Z,1003.34
2018-04-22T10:11:44.150Z,1003.32
2018-04-22T10:12:44.171Z,1003.31
2018-04-22T10:13:44.153Z,1003.28
2018-04-22T10:14:44.089Z,1003.25
2018-04-22T10:15:44.155Z,1003.25
2018-04-22T10:16:44.081Z,1003.26
2018-04-22T10:17:44.155Z,1003.21
2018-04-22T10:18:44.081Z,1003.24
2018-04-22T10:19:44.084Z,1003.14
2018-04-22T10:20:44.155Z,1003.15
2018-04-22T10:21:44.122Z,1003.14
2018-04-22T10:22:44.161Z,1003.15
2018-04-22T10:23:44.213Z,1003.10
2018-04-22T10:24:44.074Z,1003.12
2018-04-22T10:25:44.058Z,1003.09
2018-04-22T10:26:44.075Z,1003.12
2018-04-22T10:27:44.132Z,1003.07
2018-04-22T10:28:44.199Z,1003.04
2018-04-22T10:29:44.157Z,1003.04
2018-04-22T10:30:44.198Z,1003.02
2018-04-22T10:31:44.127Z,1003.01
2018-04-22T10:32:44.095Z,1003.00
2018-04-22T10:33:44.099Z,1002.96
2018-04-22T10:34:44.170Z,1002.94
2018-04-22T10:35:44.094Z,1002.92
2018-04-22T10:36:44.095Z,1002.89
2018-04-22T10:37:44.211Z,1002.86
2018-04-22T10:38:44.100Z,1002.85
2018-04-22T10:39:44.165Z,1002.85
2018-04-22T10:40:44.165Z,1002.83
2018-04-22T10:41:44.167Z,1002.79
2018-04-22T10:42:44.051Z,1002.78
2018-04-22T10:43:44.098Z,1002.74
2018-04-22T10:44:44.098Z,1002.71
2018-04-22T10:45:44.097Z,1002.73
2018-04-22T10:46:44.142Z,1002.72
2018-04-22T10:47:44.176Z,1002.69
2018-04-22T10:48:44.102Z,1002.65
2018-04-22T10:49:44.181Z,1002.62
2018-04-22T10:50:44.102Z,1002.61
2018-04-22T10:51:44.103Z,1002.60
2018-04-22T10:52:44.180Z,1002.62
2018-04-22T10:53:44.105Z,1002.63
2018-04-22T10:54:44.145Z,1002.58
2018-04-22T10:55:44.174Z,1002.55
2018-04-22T10:56:44.106Z,1002.56
2018-04-22T10:57:44.106Z,1002.55
2018-04-22T10:58:44.145Z,1002.54
2018-04-22T10:59:44.106Z,1002.52
2018-04-22T11:00:44.182Z,1002.49
2018-04-22T11:01:44.279Z,1002.44
2018-04-22T11:02:44.157Z,1002.45
2018-04-22T11:03:44.211Z,1002.47
2018-04-22T11:04:44.149Z,1002.46
2018-04-22T11:05:44.179Z,1002.39
2018-04-22T11:06:44.221Z,1002.41
2018-04-22T11:07:44.220Z,1002.38
2018-04-22T11:08:44.157Z,1002.37
2018-04-22T11:09:44.206Z,1002.30
2018-04-22T11:10:44.223Z,1002.33
2018-04-22T11:11:44.249Z,1002.30
2018-04-22T11:12:44.191Z,1002.27
2018-04-22T11:13:44.198Z,1002.16
2018-04-22T11:14:44.118Z,1002.13
2018-04-22T11:15:44.194Z,1002.14
2018-04-22T11:16:44.119Z,1002.12
2018-04-22T11:17:44.118Z,1002.13
2018-04-22T11:18:44.120Z,1002.14
2018-04-22T11:19:44.139Z,1002.12
2018-04-22T11:20:44.193Z,1002.08
2018-04-22T11:21:44.122Z,1002.13
2018-04-22T11:22:44.195Z,1002.10
2018-04-22T11:23:44.200Z,1002.07
2018-04-22T11:24:44.125Z,1002.07
2018-04-22T11:25:44.199Z,1002.02
2018-04-22T11:26:44.195Z,1002.04
2018-04-22T11:27:44.126Z,1002.05
2018-04-22T11:28:44.200Z,1002.02
2018-04-22T11:29:44.199Z,1001.99
2018-04-22T11:30:44.204Z,1001.94
2018-04-22T11:31:44.130Z,1001.90
2018-04-22T11:32:44.231Z,1001.90
2018-04-22T11:33:44.180Z,1001.92
2018-04-22T11:34:44.281Z,1001.87
2018-04-22T11:35:44.240Z,1001.89
2018-04-22T11:36:44.138Z,1001.88
2018-04-22T11:37:44.168Z,1001.88
2018-04-22T11:38:44.141Z,1001.81
2018-04-22T11:39:44.180Z,1001.85
2018-04-22T11:40:44.230Z,1001.82
2018-04-22T11:41:44.245Z,1001.81
2018-04-22T11:42:44.078Z,1001.79
2018-04-22T11:43:44.128Z,1001.80
2018-04-22T11:44:44.165Z,1001.78
2018-04-22T11:45:44.113Z,1001.80
2018-04-22T11:46:44.150Z,1001.78
2018-04-22T11:47:44.105Z,1001.74
2018-04-22T11:48:44.079Z,1001.72
2018-04-22T11:49:44.128Z,1001.71
2018-04-22T11:50:44.098Z,1001.71
2018-04-22T11:51:44.204Z,1001.72
2018-04-22T11:52:44.242Z,1001.68
2018-04-22T11:53:44.213Z,1001.69
2018-04-22T11:54:44.249Z,1001.65
2018-04-22T11:55:44.168Z,1001.66
2018-04-22T11:56:44.119Z,1001.67
2018-04-22T11:57:44.249Z,1001.71
2018-04-22T11:58:44.213Z,1001.67
2018-04-22T11:59:44.190Z,1001.63
2018-04-22T12:00:44.222Z,1001.59
2018-04-22T12:01:44.177Z,1001.61
2018-04-22T12:02:44.222Z,1001.61
2018-04-22T12:03:44.118Z,1001.56
2018-04-22T12:04:44.237Z,1001.58
2018-04-22T12:05:44.180Z,1001.59